createdAt,value
2022-09-14T00:00:00.574Z,99.99
2022-09-14T00:01:23.739Z,99.99
2022-09-14T00:02:01.764Z,99.99
2022-09-14T00:03:00.666Z,99.99
2022-09-14T00:04:00.529Z,99.99
2022-09-14T00:05:00.534Z,99.99
2022-09-14T00:06:00.507Z,99.99
2022-09-14T00:07:00.496Z,99.99
2022-09-14T00:08:00.493Z,99.99
2022-09-14T00:09:00.479Z,99.99
2022-09-14T00:10:00.460Z,99.99
2022-09-14T00:11:00.458Z,99.99
2022-09-14T00:12:00.439Z,99.99
2022-09-14T00:13:00.451Z,99.99
2022-09-14T00:14:00.423Z,99.99
2022-09-14T00:15:00.401Z,99.99
2022-09-14T00:16:00.397Z,99.99
2022-09-14T00:17:00.444Z,99.99
2022-09-14T00:18:00.387Z,99.99
2022-09-14T00:19:00.368Z,99.99
2022-09-14T00:20:00.360Z,99.99
2022-09-14T00:21:00.369Z,99.99
2022-09-14T00:22:00.333Z,99.99
2022-09-14T00:23:00.330Z,99.99
2022-09-14T00:24:00.310Z,99.99
2022-09-14T00:25:00.300Z,99.99
2022-09-14T00:26:00.285Z,99.99
2022-09-14T00:27:00.272Z,99.99
2022-09-14T00:28:00.272Z,99.99
2022-09-14T00:29:00.254Z,99.99
2022-09-14T00:30:00.250Z,99.99
2022-09-14T00:31:00.233Z,99.99
2022-09-14T00:32:00.363Z,99.99
2022-09-14T00:33:00.222Z,99.99
2022-09-14T00:34:00.200Z,99.99
2022-09-14T00:35:00.192Z,99.99
2022-09-14T00:36:00.183Z,99.99
2022-09-14T00:37:00.270Z,99.99
2022-09-14T00:38:00.165Z,99.99
2022-09-14T00:39:00.142Z,99.99
2022-09-14T00:40:00.270Z,99.99
2022-09-14T00:41:00.123Z,99.99
2022-09-14T00:42:00.119Z,99.99
2022-09-14T00:43:00.112Z,99.99
2022-09-14T00:44:00.085Z,99.99
2022-09-14T00:45:00.079Z,99.99
2022-09-14T00:46:00.180Z,99.99
2022-09-14T00:47:00.064Z,99.99
2022-09-14T00:48:00.074Z,99.99
2022-09-14T00:49:00.047Z,99.99
2022-09-14T00:50:00.024Z,99.99
2022-09-14T00:51:00.014Z,99.99
2022-09-14T00:52:00.004Z,99.99
2022-09-14T00:53:00.133Z,99.99
2022-09-14T00:53:59.985Z,99.99
2022-09-14T00:54:59.974Z,99.99
2022-09-14T00:55:59.957Z,99.99
2022-09-14T00:56:59.948Z,99.99
2022-09-14T00:57:59.947Z,99.99
2022-09-14T00:58:59.923Z,99.99
2022-09-14T00:59:59.919Z,99.99
2022-09-14T01:00:59.927Z,99.99
2022-09-14T01:01:59.952Z,99.99
2022-09-14T01:02:59.897Z,99.99
2022-09-14T01:03:59.871Z,99.99
2022-09-14T01:05:07.460Z,99.99
2022-09-14T01:05:59.862Z,99.99
2022-09-14T01:06:59.840Z,99.99
2022-09-14T01:07:59.831Z,99.99
2022-09-14T01:08:59.853Z,99.99
2022-09-14T01:09:59.806Z,99.99
2022-09-14T01:10:59.795Z,99.99
2022-09-14T01:11:59.782Z,99.99
2022-09-14T01:12:59.771Z,99.99
2022-09-14T01:13:59.774Z,99.99
2022-09-14T01:14:59.753Z,99.99
2022-09-14T01:15:59.797Z,99.99
2022-09-14T01:16:59.735Z,99.99
2022-09-14T01:17:59.717Z,99.99
2022-09-14T01:18:59.721Z,99.99
2022-09-14T01:19:59.697Z,99.99
2022-09-14T01:20:59.680Z,99.99
2022-09-14T01:21:59.670Z,99.99
2022-09-14T01:22:59.664Z,99.99
2022-09-14T01:23:59.649Z,99.99
2022-09-14T01:24:59.668Z,99.99
2022-09-14T01:25:59.628Z,99.99
2022-09-14T01:26:59.622Z,99.99
2022-09-14T01:27:59.610Z,99.99
2022-09-14T01:28:59.651Z,99.99
2022-09-14T01:29:59.589Z,99.99
2022-09-14T01:30:59.572Z,99.99
2022-09-14T01:31:59.708Z,99.99
2022-09-14T01:32:59.552Z,99.99
2022-09-14T01:33:59.546Z,99.99
2022-09-14T01:34:59.547Z,99.99
2022-09-14T01:35:59.516Z,99.99
2022-09-14T01:36:59.504Z,99.99
2022-09-14T01:37:59.504Z,99.99
2022-09-14T01:38:59.497Z,99.99
2022-09-14T01:39:59.571Z,99.99
2022-09-14T01:40:59.481Z,99.99
2022-09-14T01:41:59.454Z,99.99
2022-09-14T01:42:59.439Z,99.99
2022-09-14T01:43:59.428Z,99.99
2022-09-14T01:44:59.433Z,99.99
2022-09-14T01:45:59.480Z,99.99
2022-09-14T01:46:59.393Z,99.99
2022-09-14T01:47:59.403Z,99.99
2022-09-14T01:48:59.371Z,99.99
2022-09-14T01:49:59.378Z,99.99
2022-09-14T01:50:59.354Z,99.99
2022-09-14T01:51:59.346Z,99.99
2022-09-14T01:52:59.330Z,99.99
2022-09-14T01:53:59.322Z,99.99
2022-09-14T01:54:59.310Z,99.99
2022-09-14T01:55:59.310Z,99.99
2022-09-14T01:56:59.395Z,99.99
2022-09-14T01:57:59.273Z,99.99
2022-09-14T01:58:59.263Z,99.99
2022-09-14T01:59:59.257Z,99.99
2022-09-14T02:00:59.343Z,99.99
2022-09-14T02:01:59.285Z,99.99
2022-09-14T02:02:59.223Z,99.99
2022-09-14T02:03:59.210Z,99.99
2022-09-14T02:04:59.199Z,99.99
2022-09-14T02:05:59.201Z,99.99
2022-09-14T02:06:59.182Z,99.99
2022-09-14T02:07:59.162Z,99.99
2022-09-14T02:08:59.160Z,99.99
2022-09-14T02:09:59.151Z,99.99
2022-09-14T02:10:59.132Z,99.99
2022-09-14T02:11:59.132Z,99.99
2022-09-14T02:12:59.215Z,99.99
2022-09-14T02:13:59.101Z,99.99
2022-09-14T02:14:59.088Z,99.99
2022-09-14T02:15:59.131Z,99.99
2022-09-14T02:16:59.077Z,99.99
2022-09-14T02:17:59.054Z,99.99
2022-09-14T02:18:59.047Z,99.99
2022-09-14T02:19:59.033Z,99.99
2022-09-14T02:20:59.029Z,99.99
2022-09-14T02:21:59.023Z,99.99
2022-09-14T02:22:58.999Z,99.99
2022-09-14T02:23:58.991Z,99.99
2022-09-14T02:24:58.984Z,99.99
2022-09-14T02:25:58.963Z,99.99
2022-09-14T02:26:58.969Z,99.99
2022-09-14T02:27:58.945Z,99.99
2022-09-14T02:28:58.950Z,99.99
2022-09-14T02:29:58.917Z,99.99
2022-09-14T02:30:59.091Z,99.99
2022-09-14T02:31:58.910Z,99.99
2022-09-14T02:32:58.888Z,99.99
2022-09-14T02:33:58.877Z,99.99
2022-09-14T02:34:58.864Z,99.99
2022-09-14T02:35:58.855Z,99.99
2022-09-14T02:36:58.859Z,99.99
2022-09-14T02:37:58.832Z,99.99
2022-09-14T02:38:58.824Z,99.99
2022-09-14T02:39:58.864Z,99.99
2022-09-14T02:40:58.836Z,99.99
2022-09-14T02:41:58.816Z,99.99
2022-09-14T02:42:58.779Z,99.99
2022-09-14T02:43:58.773Z,99.99
2022-09-14T02:44:58.850Z,99.99
2022-09-14T02:45:58.744Z,99.99
2022-09-14T02:46:58.812Z,99.99
2022-09-14T02:47:58.725Z,99.99
2022-09-14T02:48:58.726Z,99.99
2022-09-14T02:49:58.697Z,99.99
2022-09-14T02:50:58.694Z,99.99
2022-09-14T02:51:58.692Z,99.99
2022-09-14T02:52:58.668Z,99.99
2022-09-14T02:53:58.656Z,99.99
2022-09-14T02:54:58.646Z,99.99
2022-09-14T02:55:58.631Z,99.99
2022-09-14T02:56:58.636Z,99.99
2022-09-14T02:57:58.611Z,99.99
2022-09-14T02:58:58.606Z,99.99
2022-09-14T02:59:58.590Z,99.99
2022-09-14T03:00:58.692Z,99.99
2022-09-14T03:01:58.642Z,99.99
2022-09-14T03:02:58.560Z,99.99
2022-09-14T03:03:58.544Z,99.99
2022-09-14T03:04:58.541Z,99.99
2022-09-14T03:05:58.522Z,99.99
2022-09-14T03:06:58.528Z,99.99
2022-09-14T03:07:58.499Z,99.99
2022-09-14T03:08:58.492Z,99.99
2022-09-14T03:09:58.481Z,99.99
2022-09-14T03:10:58.470Z,99.99
2022-09-14T03:11:58.476Z,99.99
2022-09-14T03:12:58.444Z,99.99
2022-09-14T03:13:58.439Z,99.99
2022-09-14T03:14:58.426Z,99.99
2022-09-14T03:15:58.465Z,99.99
2022-09-14T03:16:58.519Z,99.99
2022-09-14T03:17:58.399Z,99.99
2022-09-14T03:18:58.385Z,99.99
2022-09-14T03:19:58.368Z,99.99
2022-09-14T03:20:58.362Z,99.99
2022-09-14T03:21:58.365Z,99.99
2022-09-14T03:22:58.338Z,99.99
2022-09-14T03:23:58.324Z,99.99
2022-09-14T03:24:58.316Z,99.99
2022-09-14T03:25:58.306Z,99.99
2022-09-14T03:26:58.308Z,99.99
2022-09-14T03:27:58.288Z,99.99
2022-09-14T03:28:58.279Z,99.99
2022-09-14T03:29:58.263Z,99.99
2022-09-14T03:30:58.292Z,99.99
2022-09-14T03:31:58.250Z,99.99
2022-09-14T03:32:58.257Z,99.99
2022-09-14T03:33:58.215Z,99.99
2022-09-14T03:34:58.205Z,99.99
2022-09-14T03:35:58.195Z,99.99
2022-09-14T03:36:58.196Z,99.99
2022-09-14T03:37:58.168Z,99.99
2022-09-14T03:38:58.159Z,99.99
2022-09-14T03:39:58.200Z,99.99
2022-09-14T03:40:58.138Z,99.99
2022-09-14T03:41:58.136Z,99.99
2022-09-14T03:42:58.110Z,99.99
2022-09-14T03:43:58.104Z,99.99
2022-09-14T03:44:58.085Z,99.99
2022-09-14T03:45:58.079Z,99.99
2022-09-14T03:46:58.108Z,99.99
2022-09-14T03:47:58.069Z,99.99
2022-09-14T03:48:58.063Z,99.99
2022-09-14T03:49:58.034Z,99.99
2022-09-14T03:50:58.025Z,99.99
2022-09-14T03:51:59.926Z,99.99
2022-09-14T03:52:58.006Z,99.99
2022-09-14T03:53:57.990Z,99.99
2022-09-14T03:54:57.983Z,99.99
2022-09-14T03:55:57.966Z,99.99
2022-09-14T03:56:57.973Z,99.99
2022-09-14T03:57:57.946Z,99.99
2022-09-14T03:58:57.949Z,99.99
2022-09-14T03:59:57.922Z,99.99
2022-09-14T04:00:57.913Z,99.99
2022-09-14T04:01:57.985Z,99.99
2022-09-14T04:02:57.945Z,99.99
2022-09-14T04:03:57.881Z,99.99
2022-09-14T04:04:57.889Z,99.99
2022-09-14T04:05:57.858Z,99.99
2022-09-14T04:06:57.845Z,99.99
2022-09-14T04:07:57.852Z,99.99
2022-09-14T04:08:57.826Z,99.99
2022-09-14T04:09:57.817Z,99.99
2022-09-14T04:10:57.803Z,99.99
2022-09-14T04:11:57.789Z,99.99
2022-09-14T04:12:57.791Z,99.99
2022-09-14T04:13:57.768Z,99.99
2022-09-14T04:14:57.760Z,99.99
2022-09-14T04:15:57.814Z,99.99
2022-09-14T04:16:57.738Z,99.99
2022-09-14T04:17:57.735Z,99.99
2022-09-14T04:18:57.716Z,99.99
2022-09-14T04:19:57.702Z,99.99
2022-09-14T04:20:57.786Z,99.99
2022-09-14T04:21:57.686Z,99.99
2022-09-14T04:22:57.685Z,99.99
2022-09-14T04:24:14.236Z,99.99
2022-09-14T04:24:58.649Z,99.99
2022-09-14T04:25:57.635Z,99.99
2022-09-14T04:26:57.626Z,99.99
2022-09-14T04:28:17.096Z,99.99
2022-09-14T04:28:58.605Z,99.99
2022-09-14T04:29:57.594Z,99.99
2022-09-14T04:30:57.639Z,99.99
2022-09-14T04:31:57.580Z,99.99
2022-09-14T04:32:57.576Z,99.99
2022-09-14T04:33:57.597Z,99.99
2022-09-14T04:34:57.564Z,99.99
2022-09-14T04:35:57.528Z,99.99
2022-09-14T04:36:57.533Z,99.99
2022-09-14T04:37:57.537Z,99.99
2022-09-14T04:38:57.495Z,99.99
2022-09-14T04:39:57.542Z,99.99
2022-09-14T04:40:57.473Z,99.99
2022-09-14T04:41:57.459Z,99.99
2022-09-14T04:42:57.461Z,99.99
2022-09-14T04:43:57.442Z,99.99
2022-09-14T04:44:57.432Z,99.99
2022-09-14T04:45:57.417Z,99.99
2022-09-14T04:46:57.450Z,99.99
2022-09-14T04:47:57.405Z,99.99
2022-09-14T04:48:57.386Z,99.99
2022-09-14T04:49:57.382Z,99.99
2022-09-14T04:50:57.366Z,99.99
2022-09-14T04:51:57.351Z,99.99
2022-09-14T04:52:57.373Z,99.99
2022-09-14T04:53:57.330Z,99.99
2022-09-14T04:54:57.326Z,99.99
2022-09-14T04:55:57.310Z,99.99
2022-09-14T04:56:57.296Z,99.99
2022-09-14T04:57:57.296Z,99.99
2022-09-14T04:58:57.272Z,99.99
2022-09-14T04:59:57.262Z,99.99
2022-09-14T05:00:57.253Z,99.99
2022-09-14T05:01:57.311Z,99.99
2022-09-14T05:02:57.322Z,99.99
2022-09-14T05:03:57.221Z,99.99
2022-09-14T05:04:57.214Z,99.99
2022-09-14T05:05:57.198Z,99.99
2022-09-14T05:06:57.187Z,99.99
2022-09-14T05:07:57.186Z,99.99
2022-09-14T05:08:57.269Z,99.99
2022-09-14T05:09:57.156Z,99.99
2022-09-14T05:10:57.141Z,99.99
2022-09-14T05:11:57.128Z,99.99
2022-09-14T05:12:57.134Z,99.99
2022-09-14T05:13:57.110Z,99.99
2022-09-14T05:14:57.096Z,99.99
2022-09-14T05:15:57.157Z,99.99
2022-09-14T05:16:57.075Z,99.99
2022-09-14T05:17:57.081Z,99.99
2022-09-14T05:18:57.061Z,99.99
2022-09-14T05:19:57.037Z,99.99
2022-09-14T05:20:57.030Z,99.99
2022-09-14T05:21:57.017Z,99.99
2022-09-14T05:22:57.019Z,99.99
2022-09-14T05:23:56.998Z,99.99
2022-09-14T05:24:57.005Z,99.99
2022-09-14T05:25:56.977Z,99.99
2022-09-14T05:27:00.227Z,99.99
2022-09-14T05:27:56.967Z,99.99
2022-09-14T05:28:56.947Z,99.99
2022-09-14T05:29:56.935Z,99.99
2022-09-14T05:30:57.010Z,99.99
2022-09-14T05:31:56.909Z,99.99
2022-09-14T05:32:58.174Z,99.99
2022-09-14T05:33:56.885Z,99.99
2022-09-14T05:34:56.881Z,99.99
2022-09-14T05:35:56.871Z,99.99
2022-09-14T05:36:56.855Z,99.99
2022-09-14T05:37:56.857Z,99.99
2022-09-14T05:38:56.833Z,99.99
2022-09-14T05:39:56.889Z,99.99
2022-09-14T05:40:56.891Z,99.99
2022-09-14T05:41:56.803Z,99.99
2022-09-14T05:42:56.821Z,99.99
2022-09-14T05:43:56.779Z,99.99
2022-09-14T05:44:56.768Z,99.99
2022-09-14T05:45:56.803Z,99.99
2022-09-14T05:46:56.742Z,99.99
2022-09-14T05:47:56.751Z,99.99
2022-09-14T05:48:56.729Z,99.99
2022-09-14T05:49:56.712Z,99.99
2022-09-14T05:50:56.701Z,99.99
2022-09-14T05:51:56.692Z,99.99
2022-09-14T05:52:56.695Z,99.99
2022-09-14T05:53:56.670Z,99.99
2022-09-14T05:54:56.663Z,99.99
2022-09-14T05:55:56.648Z,99.99
2022-09-14T05:56:56.651Z,99.99
2022-09-14T05:57:56.632Z,99.99
2022-09-14T05:58:56.618Z,99.99
2022-09-14T05:59:56.612Z,99.99
2022-09-14T06:00:56.591Z,99.99
2022-09-14T06:01:56.636Z,99.99
2022-09-14T06:02:56.570Z,99.99
2022-09-14T06:03:56.555Z,99.99
2022-09-14T06:04:56.590Z,99.99
2022-09-14T06:05:56.541Z,99.99
2022-09-14T06:07:17.525Z,99.99
2022-09-14T06:07:57.536Z,99.99
2022-09-14T06:08:56.507Z,99.99
2022-09-14T06:09:56.496Z,99.99
2022-09-14T06:10:56.480Z,99.99
2022-09-14T06:11:56.480Z,99.99
2022-09-14T06:12:56.490Z,99.99
2022-09-14T06:13:56.454Z,99.99
2022-09-14T06:14:56.437Z,99.99
2022-09-14T06:15:56.434Z,99.99
2022-09-14T06:16:56.416Z,99.99
2022-09-14T06:17:56.430Z,99.99
2022-09-14T06:18:56.397Z,99.99
2022-09-14T06:19:58.311Z,99.99
2022-09-14T06:20:56.377Z,99.99
2022-09-14T06:21:56.363Z,99.99
2022-09-14T06:22:56.370Z,99.99
2022-09-14T06:23:56.348Z,99.99
2022-09-14T06:24:56.332Z,99.99
2022-09-14T06:25:56.321Z,99.99
2022-09-14T06:26:56.314Z,99.99
2022-09-14T06:27:56.348Z,99.99
2022-09-14T06:28:56.396Z,99.99
2022-09-14T06:29:56.276Z,99.99
2022-09-14T06:30:56.261Z,99.99
2022-09-14T06:31:56.255Z,99.99
2022-09-14T06:32:56.252Z,99.99
2022-09-14T06:33:56.229Z,99.99
2022-09-14T06:34:56.222Z,99.99
2022-09-14T06:35:56.211Z,99.99
2022-09-14T06:36:56.198Z,99.99
2022-09-14T06:37:56.193Z,99.99
2022-09-14T06:38:56.178Z,99.99
2022-09-14T06:39:56.226Z,99.99
2022-09-14T06:40:56.151Z,99.99
2022-09-14T06:41:56.145Z,99.99
2022-09-14T06:42:56.149Z,99.99
2022-09-14T06:43:56.124Z,99.99
2022-09-14T06:44:56.200Z,99.99
2022-09-14T06:45:56.097Z,99.99
2022-09-14T06:46:56.084Z,99.99
2022-09-14T06:47:56.098Z,99.99
2022-09-14T06:48:56.065Z,99.99
2022-09-14T06:49:56.054Z,99.99
2022-09-14T06:50:56.043Z,99.99
2022-09-14T06:51:56.031Z,99.99
2022-09-14T06:52:56.036Z,99.99
2022-09-14T06:53:56.012Z,99.99
2022-09-14T06:54:56.000Z,99.99
2022-09-14T06:55:55.988Z,99.99
2022-09-14T06:56:55.975Z,99.99
2022-09-14T06:57:55.975Z,99.99
2022-09-14T06:58:55.958Z,99.99
2022-09-14T06:59:55.949Z,99.99
2022-09-14T07:00:55.947Z,99.99
2022-09-14T07:01:55.920Z,99.99
2022-09-14T07:02:56.020Z,99.99
2022-09-14T07:03:55.899Z,99.99
2022-09-14T07:04:55.894Z,99.99
2022-09-14T07:05:55.887Z,99.99
2022-09-14T07:06:55.865Z,99.99
2022-09-14T07:07:55.868Z,99.99
2022-09-14T07:09:03.123Z,99.99
2022-09-14T07:09:55.835Z,99.99
2022-09-14T07:10:55.821Z,99.99
2022-09-14T07:11:55.813Z,99.99
2022-09-14T07:12:55.808Z,99.99
2022-09-14T07:13:55.791Z,99.99
2022-09-14T07:14:55.774Z,99.99
2022-09-14T07:15:55.784Z,99.99
2022-09-14T07:16:55.854Z,99.99
2022-09-14T07:17:55.756Z,99.99
2022-09-14T07:18:55.738Z,99.99
2022-09-14T07:19:55.725Z,99.99
2022-09-14T07:20:55.717Z,99.99
2022-09-14T07:21:55.698Z,99.99
2022-09-14T07:22:55.700Z,99.99
2022-09-14T07:23:55.677Z,99.99
2022-09-14T07:24:55.665Z,99.99
2022-09-14T07:25:55.653Z,99.99
2022-09-14T07:26:55.644Z,99.99
2022-09-14T07:27:55.652Z,99.99
2022-09-14T07:28:55.626Z,99.99
2022-09-14T07:29:55.616Z,99.99
2022-09-14T07:30:58.919Z,99.99
2022-09-14T07:31:55.592Z,99.99
2022-09-14T07:32:55.625Z,99.99
2022-09-14T07:33:55.573Z,99.99
2022-09-14T07:34:55.555Z,99.99
2022-09-14T07:35:55.542Z,99.99
2022-09-14T07:36:55.532Z,99.99
2022-09-14T07:37:55.537Z,99.99
2022-09-14T07:38:55.511Z,99.99
2022-09-14T07:39:55.567Z,99.99
2022-09-14T07:40:55.491Z,99.99
2022-09-14T07:41:55.484Z,99.99
2022-09-14T07:42:57.654Z,99.99
2022-09-14T07:43:55.457Z,99.99
2022-09-14T07:44:55.447Z,99.99
2022-09-14T07:45:55.485Z,99.99
2022-09-14T07:46:55.424Z,99.99
2022-09-14T07:47:55.415Z,99.99
2022-09-14T07:48:55.464Z,99.99
2022-09-14T07:49:55.389Z,99.99
2022-09-14T07:50:55.381Z,99.99
2022-09-14T07:51:55.374Z,99.99
2022-09-14T07:52:55.361Z,99.99
2022-09-14T07:53:55.363Z,99.99
2022-09-14T07:54:55.335Z,99.99
2022-09-14T07:55:55.325Z,99.99
2022-09-14T07:56:55.311Z,99.99
2022-09-14T07:57:56.749Z,99.99
2022-09-14T07:59:03.320Z,99.99
2022-09-14T07:59:56.281Z,99.99
2022-09-14T08:00:55.271Z,99.99
2022-09-14T08:01:55.395Z,99.99
2022-09-14T08:02:55.429Z,99.99
2022-09-14T08:03:55.251Z,99.99
2022-09-14T08:04:55.244Z,99.99
2022-09-14T08:05:55.216Z,99.99
2022-09-14T08:06:55.208Z,99.99
2022-09-14T08:07:55.191Z,99.99
2022-09-14T08:08:55.189Z,99.99
2022-09-14T08:09:55.176Z,99.99
2022-09-14T08:10:55.159Z,99.99
2022-09-14T08:11:55.154Z,99.99
2022-09-14T08:12:55.137Z,99.99
2022-09-14T08:13:55.138Z,99.99
2022-09-14T08:14:55.121Z,99.99
2022-09-14T08:15:55.112Z,99.99
2022-09-14T08:16:55.201Z,99.99
2022-09-14T08:17:55.085Z,99.99
2022-09-14T08:18:55.090Z,99.99
2022-09-14T08:19:55.067Z,99.99
2022-09-14T08:20:55.067Z,99.99
2022-09-14T08:21:55.044Z,99.99
2022-09-14T08:22:55.032Z,99.99
2022-09-14T08:23:55.035Z,99.99
2022-09-14T08:24:55.020Z,99.99
2022-09-14T08:25:55.000Z,99.99
2022-09-14T08:26:54.990Z,99.99
2022-09-14T08:27:54.976Z,99.99
2022-09-14T08:28:54.982Z,99.99
2022-09-14T08:29:54.955Z,99.99
2022-09-14T08:30:54.950Z,99.99
2022-09-14T08:31:55.080Z,99.99
2022-09-14T08:32:57.056Z,99.99
2022-09-14T08:33:55.925Z,99.99
2022-09-14T08:34:54.901Z,99.99
2022-09-14T08:35:57.757Z,99.99
2022-09-14T08:36:54.900Z,99.99
2022-09-14T08:37:54.870Z,99.99
2022-09-14T08:38:54.868Z,99.99
2022-09-14T08:39:54.878Z,99.99
2022-09-14T08:40:54.832Z,99.99
2022-09-14T08:41:54.826Z,99.99
2022-09-14T08:42:54.816Z,99.99
2022-09-14T08:43:54.816Z,99.99
2022-09-14T08:44:54.791Z,99.99
2022-09-14T08:45:54.916Z,99.99
2022-09-14T08:46:54.774Z,99.99
2022-09-14T08:47:54.767Z,99.99
2022-09-14T08:48:54.759Z,99.99
2022-09-14T08:49:54.753Z,99.99
2022-09-14T08:50:54.728Z,99.99
2022-09-14T08:51:54.717Z,99.99
2022-09-14T08:52:54.879Z,99.99
2022-09-14T08:53:54.706Z,99.99
2022-09-14T08:54:54.679Z,99.99
2022-09-14T08:55:54.669Z,99.99
2022-09-14T08:56:54.658Z,99.99
2022-09-14T08:57:54.648Z,99.99
2022-09-14T08:58:54.760Z,99.99
2022-09-14T08:59:54.629Z,99.99
2022-09-14T09:00:54.700Z,99.99
2022-09-14T09:01:54.610Z,99.99
2022-09-14T09:02:54.585Z,99.99
2022-09-14T09:03:54.730Z,99.99
2022-09-14T09:04:54.580Z,99.99
2022-09-14T09:05:54.566Z,99.99
2022-09-14T09:06:54.549Z,99.99
2022-09-14T09:07:54.547Z,99.99
2022-09-14T09:08:54.558Z,99.99
2022-09-14T09:09:54.538Z,99.99
2022-09-14T09:10:54.502Z,99.99
2022-09-14T09:11:54.499Z,99.99
2022-09-14T09:12:54.474Z,99.99
2022-09-14T09:13:54.469Z,99.99
2022-09-14T09:14:54.467Z,99.99
2022-09-14T09:15:54.451Z,99.99
2022-09-14T09:16:54.441Z,99.99
2022-09-14T09:17:54.426Z,99.99
2022-09-14T09:18:54.558Z,99.99
2022-09-14T09:19:54.409Z,99.99
2022-09-14T09:20:54.389Z,99.99
2022-09-14T09:21:54.381Z,99.99
2022-09-14T09:22:54.365Z,99.99
2022-09-14T09:23:54.361Z,99.99
2022-09-14T09:24:54.469Z,99.99
2022-09-14T09:25:54.337Z,99.99
2022-09-14T09:26:54.324Z,99.99
2022-09-14T09:27:54.313Z,99.99
2022-09-14T09:28:54.311Z,99.99
2022-09-14T09:29:54.297Z,99.99
2022-09-14T09:30:54.281Z,99.99
2022-09-14T09:31:54.340Z,99.99
2022-09-14T09:32:54.259Z,99.99
2022-09-14T09:33:54.248Z,99.99
2022-09-14T09:34:54.248Z,99.99
2022-09-14T09:35:54.224Z,99.99
2022-09-14T09:36:54.216Z,99.99
2022-09-14T09:37:54.203Z,99.99
2022-09-14T09:38:54.194Z,99.99
2022-09-14T09:39:54.262Z,99.99
2022-09-14T09:40:54.274Z,99.99
2022-09-14T09:41:54.163Z,99.99
2022-09-14T09:42:54.147Z,99.99
2022-09-14T09:43:54.140Z,99.99
2022-09-14T09:44:58.044Z,99.99
2022-09-14T09:45:55.111Z,99.99
2022-09-14T09:46:54.171Z,99.99
2022-09-14T09:47:54.097Z,99.99
2022-09-14T09:48:54.080Z,99.99
2022-09-14T09:49:54.069Z,99.99
2022-09-14T09:50:54.071Z,99.99
2022-09-14T09:51:54.047Z,99.99
2022-09-14T09:52:54.045Z,99.99
2022-09-14T09:53:54.033Z,99.99
2022-09-14T09:54:54.027Z,99.99
2022-09-14T09:55:54.007Z,99.99
2022-09-14T09:56:54.017Z,99.99
2022-09-14T09:57:53.986Z,99.99
2022-09-14T09:58:53.969Z,99.99
2022-09-14T09:59:53.962Z,99.99
2022-09-14T10:00:54.016Z,99.99
2022-09-14T10:01:53.987Z,99.99
2022-09-14T10:02:53.929Z,99.99
2022-09-14T10:03:53.921Z,99.99
2022-09-14T10:04:53.920Z,99.99
2022-09-14T10:05:53.906Z,99.99
2022-09-14T10:06:53.882Z,99.99
2022-09-14T10:07:53.877Z,99.99
2022-09-14T10:08:53.870Z,99.99
2022-09-14T10:09:53.857Z,99.99
2022-09-14T10:10:53.853Z,99.99
2022-09-14T10:11:53.830Z,99.99
2022-09-14T10:12:53.838Z,99.99
2022-09-14T10:13:53.822Z,99.99
2022-09-14T10:14:53.794Z,99.99
2022-09-14T10:15:53.895Z,99.99
2022-09-14T10:16:53.776Z,99.99
2022-09-14T10:17:53.763Z,99.99
2022-09-14T10:18:54.145Z,99.99
2022-09-14T10:19:53.749Z,99.99
2022-09-14T10:20:53.736Z,99.99
2022-09-14T10:21:53.719Z,99.99
2022-09-14T10:22:53.706Z,99.99
2022-09-14T10:24:01.295Z,99.99
2022-09-14T10:24:53.698Z,99.99
2022-09-14T10:25:53.693Z,99.99
2022-09-14T10:26:53.685Z,99.99
2022-09-14T10:27:53.668Z,99.99
2022-09-14T10:28:53.678Z,99.99
2022-09-14T10:29:53.642Z,99.99
2022-09-14T10:30:53.723Z,99.99
2022-09-14T10:31:53.614Z,99.99
2022-09-14T10:32:53.620Z,99.99
2022-09-14T10:33:53.587Z,99.99
2022-09-14T10:34:53.636Z,99.99
2022-09-14T10:35:53.590Z,99.99
2022-09-14T10:36:53.671Z,99.99
2022-09-14T10:37:53.575Z,99.99
2022-09-14T10:38:53.570Z,99.99
2022-09-14T10:39:53.615Z,99.99
2022-09-14T10:40:53.542Z,99.99
2022-09-14T10:41:53.498Z,99.99
2022-09-14T10:42:53.527Z,99.99
2022-09-14T10:43:53.489Z,99.99
2022-09-14T10:44:53.502Z,99.99
2022-09-14T10:45:53.530Z,99.99
2022-09-14T10:46:53.539Z,99.99
2022-09-14T10:47:53.450Z,99.99
2022-09-14T10:48:53.446Z,99.99
2022-09-14T10:49:53.427Z,99.99
2022-09-14T10:50:53.434Z,99.99
2022-09-14T10:51:53.423Z,99.99
2022-09-14T10:52:53.395Z,99.99
2022-09-14T10:53:53.581Z,99.99
2022-09-14T10:54:54.469Z,99.99
2022-09-14T10:55:53.365Z,99.99
2022-09-14T10:56:53.375Z,99.99
2022-09-14T10:57:53.331Z,99.99
2022-09-14T10:58:53.329Z,99.99
2022-09-14T10:59:53.344Z,99.99
2022-09-14T11:00:53.358Z,99.99
2022-09-14T11:01:53.497Z,99.99
2022-09-14T11:02:53.378Z,99.99
2022-09-14T11:03:53.358Z,99.99
2022-09-14T11:04:53.277Z,99.99
2022-09-14T11:05:53.274Z,99.99
2022-09-14T11:06:53.250Z,99.99
2022-09-14T11:07:53.228Z,99.99
2022-09-14T11:08:53.219Z,99.99
2022-09-14T11:09:53.223Z,99.99
2022-09-14T11:10:53.223Z,99.99
2022-09-14T11:11:53.194Z,99.99
2022-09-14T11:12:53.173Z,99.99
2022-09-14T11:13:53.202Z,99.99
2022-09-14T11:14:53.159Z,99.99
2022-09-14T11:15:53.232Z,99.99
2022-09-14T11:16:53.156Z,99.99
2022-09-14T11:17:53.122Z,99.99
2022-09-14T11:18:53.108Z,99.99
2022-09-14T11:19:53.098Z,99.99
2022-09-14T11:20:53.147Z,99.99
2022-09-14T11:21:53.077Z,99.99
2022-09-14T11:22:53.069Z,99.99
2022-09-14T11:23:53.063Z,99.99
2022-09-14T11:24:53.051Z,99.99
2022-09-14T11:25:53.056Z,99.99
2022-09-14T11:26:53.031Z,99.99
2022-09-14T11:27:53.005Z,99.99
2022-09-14T11:28:53.074Z,99.99
2022-09-14T11:29:52.986Z,99.99
2022-09-14T11:30:53.076Z,99.99
2022-09-14T11:32:16.967Z,99.99
2022-09-14T11:32:53.973Z,99.99
2022-09-14T11:33:52.969Z,99.99
2022-09-14T11:34:52.937Z,99.99
2022-09-14T11:35:52.939Z,99.99
2022-09-14T11:36:52.926Z,99.99
2022-09-14T11:37:52.931Z,99.99
2022-09-14T11:38:52.949Z,99.99
2022-09-14T11:39:52.979Z,99.99
2022-09-14T11:40:52.931Z,99.99
2022-09-14T11:41:52.869Z,99.99
2022-09-14T11:42:52.856Z,99.99
2022-09-14T11:43:52.836Z,99.99
2022-09-14T11:44:52.824Z,99.99
2022-09-14T11:45:52.886Z,99.99
2022-09-14T11:46:52.800Z,99.99
2022-09-14T11:47:52.812Z,99.99
2022-09-14T11:48:52.994Z,99.99
2022-09-14T11:49:52.770Z,99.99
2022-09-14T11:50:52.810Z,99.99
2022-09-14T11:51:52.754Z,99.99
2022-09-14T11:52:52.753Z,99.99
2022-09-14T11:53:52.755Z,99.99
2022-09-14T11:54:52.711Z,99.66
2022-09-14T11:55:52.705Z,99.86
2022-09-14T11:56:52.754Z,99.81
2022-09-14T11:57:52.675Z,99.99
2022-09-14T11:58:52.673Z,99.71
2022-09-14T11:59:52.673Z,99.99
2022-09-14T12:00:52.756Z,99.99
2022-09-14T12:01:52.650Z,99.99
2022-09-14T12:02:52.914Z,99.99
2022-09-14T12:03:52.712Z,99.99
2022-09-14T12:04:52.615Z,99.46
2022-09-14T12:06:53.593Z,99.16
2022-09-14T12:07:52.580Z,99.27
2022-09-14T12:08:52.586Z,98.87
2022-09-14T12:09:52.560Z,99.12
2022-09-14T12:10:52.558Z,99.02
2022-09-14T12:11:52.529Z,99.02
2022-09-14T12:12:52.520Z,99.02
2022-09-14T12:13:52.540Z,99.22
2022-09-14T12:14:52.529Z,98.97
2022-09-14T12:15:52.514Z,99.17
2022-09-14T12:16:52.472Z,99.37
2022-09-14T12:17:52.457Z,98.77
2022-09-14T12:18:52.465Z,98.77
2022-09-14T12:19:52.479Z,98.97
2022-09-14T12:20:52.460Z,98.77
2022-09-14T12:21:52.431Z,98.68
2022-09-14T12:22:52.424Z,98.77
2022-09-14T12:23:52.575Z,98.77
2022-09-14T12:24:52.393Z,98.97
2022-09-14T12:25:52.436Z,98.97
2022-09-14T12:26:52.361Z,98.77
2022-09-14T12:27:52.372Z,98.87
2022-09-14T12:28:59.932Z,98.87
2022-09-14T12:29:52.368Z,98.68
2022-09-14T12:30:52.448Z,98.97
2022-09-14T12:31:52.340Z,99.17
2022-09-14T12:32:52.328Z,98.87
2022-09-14T12:33:52.423Z,98.68
2022-09-14T12:34:52.326Z,99.17
2022-09-14T12:35:52.346Z,98.68
2022-09-14T12:36:52.326Z,99.27
2022-09-14T12:37:52.300Z,99.27
2022-09-14T12:38:52.283Z,99.17
2022-09-14T12:39:52.307Z,98.87
2022-09-14T12:40:52.301Z,98.97
2022-09-14T12:41:52.238Z,99.17
2022-09-14T12:42:52.239Z,99.67
2022-09-14T12:43:52.317Z,99.47
2022-09-14T12:44:52.253Z,99.96
2022-09-14T12:45:52.320Z,99.77
2022-09-14T12:46:52.208Z,99.67
2022-09-14T12:47:52.191Z,99.67
2022-09-14T12:48:52.176Z,99.77
2022-09-14T12:49:52.218Z,99.77
2022-09-14T12:50:52.157Z,99.99
2022-09-14T12:51:52.125Z,99.47
2022-09-14T12:52:52.149Z,99.87